createdAt,value
2018-02-04T05:01:24.906Z,98.71
2018-02-04T05:01:50.491Z,99.38
2018-02-04T05:02:15.917Z,99.28
2018-02-04T05:02:41.366Z,99.09
2018-02-04T05:03:06.885Z,99
2018-02-04T05:03:32.395Z,99.19
2018-02-04T05:04:25.819Z,99.38
2018-02-04T05:04:51.310Z,99.28
2018-02-04T05:05:16.808Z,99.38
2018-02-04T05:05:42.294Z,99.38
2018-02-04T05:06:07.782Z,99.47
2018-02-04T05:06:33.302Z,99.66
2018-02-04T05:06:58.830Z,99.66
2018-02-04T05:07:24.313Z,99.47
2018-02-04T05:07:49.796Z,99.85
2018-02-04T05:08:15.240Z,99.76
2018-02-04T05:08:40.725Z,99.99
2018-02-04T05:09:06.241Z,99.99
2018-02-04T05:09:31.696Z,99.99
2018-02-04T05:09:57.173Z,99.99
2018-02-04T05:10:22.702Z,99.99
2018-02-04T05:10:48.176Z,99.99
2018-02-04T05:11:13.697Z,99.99
2018-02-04T05:11:39.203Z,99.99
2018-02-04T05:12:04.690Z,99.99
2018-02-04T05:12:30.169Z,99.99
2018-02-04T05:12:55.676Z,99.99
2018-02-04T05:13:21.156Z,99.95
2018-02-04T05:13:46.655Z,99.95
2018-02-04T05:14:45.171Z,99.99
2018-02-04T05:15:10.686Z,99.99
2018-02-04T05:15:36.169Z,99.99
2018-02-04T05:16:01.660Z,99.99
2018-02-04T05:16:27.158Z,99.99
2018-02-04T05:16:52.659Z,99.99
2018-02-04T05:17:18.122Z,99.99
2018-02-04T05:17:43.567Z,99.99
2018-02-04T05:18:09.099Z,99.99
2018-02-04T05:18:34.604Z,99.99
2018-02-04T05:19:48.729Z,99.99
2018-02-04T05:20:14.233Z,99.99
2018-02-04T05:20:39.719Z,99.99
2018-02-04T05:21:05.193Z,99.99
2018-02-04T05:21:30.669Z,99.95
2018-02-04T05:21:56.169Z,99.99
2018-02-04T05:22:21.646Z,99.99
2018-02-04T05:22:47.174Z,99.99
2018-02-04T05:23:12.670Z,99.99
2018-02-04T05:23:38.168Z,99.99
2018-02-04T05:24:03.657Z,99.99
2018-02-04T05:24:29.149Z,99.99
2018-02-04T05:24:54.612Z,99.99
2018-02-04T05:25:20.122Z,99.99
2018-02-04T05:25:45.646Z,99.99
2018-02-04T05:26:59.486Z,99.99
2018-02-04T05:27:24.991Z,99.99
2018-02-04T05:27:50.472Z,99.99
2018-02-04T05:28:15.952Z,99.99
2018-02-04T05:28:41.479Z,99.99
2018-02-04T05:29:06.979Z,99.99
2018-02-04T05:29:32.469Z,99.99
2018-02-04T05:29:57.970Z,99.99
2018-02-04T05:30:23.440Z,99.99
2018-02-04T05:31:32.144Z,99.99
2018-02-04T05:31:57.640Z,99.99
2018-02-04T05:32:23.148Z,99.99
2018-02-04T05:32:48.642Z,99.99
2018-02-04T05:33:14.114Z,99.99
2018-02-04T05:33:39.631Z,99.99
2018-02-04T05:34:05.113Z,99.99
2018-02-04T05:34:30.626Z,99.99
2018-02-04T05:34:56.106Z,99.99
2018-02-04T05:35:21.611Z,99.99
2018-02-04T05:35:47.109Z,99.99
2018-02-04T05:36:12.586Z,99.99
2018-02-04T05:36:38.099Z,99.99
2018-02-04T05:37:03.536Z,99.99
2018-02-04T05:37:29.032Z,99.99
2018-02-04T05:37:54.499Z,99.99
2018-02-04T05:38:19.974Z,99.99
2018-02-04T05:38:45.440Z,99.99
2018-02-04T05:39:10.957Z,99.99
2018-02-04T05:39:36.401Z,99.99
2018-02-04T05:40:01.881Z,99.99
2018-02-04T05:40:27.370Z,99.99
2018-02-04T05:40:52.874Z,99.99
2018-02-04T05:41:18.350Z,99.99
2018-02-04T05:41:43.869Z,99.99
2018-02-04T05:42:09.390Z,99.99
2018-02-04T05:42:34.880Z,99.99
2018-02-04T05:43:00.420Z,99.99
2018-02-04T05:43:25.913Z,99.99
2018-02-04T05:43:51.432Z,99.99
2018-02-04T05:44:16.931Z,99.99
2018-02-04T05:44:42.424Z,99.99
2018-02-04T05:45:07.912Z,99.99
2018-02-04T05:45:33.382Z,99.99
2018-02-04T05:45:58.900Z,99.99
2018-02-04T05:46:24.344Z,99.99
2018-02-04T05:46:49.812Z,99.99
2018-02-04T05:47:15.319Z,99.99
2018-02-04T05:47:40.842Z,99.99
2018-02-04T05:48:06.331Z,99.99
2018-02-04T05:48:31.837Z,99.99
2018-02-04T05:48:57.344Z,99.99
2018-02-04T05:49:22.837Z,99.99
2018-02-04T05:49:48.332Z,99.99
2018-02-04T05:50:13.830Z,99.99
2018-02-04T05:50:39.326Z,99.99
2018-02-04T05:51:04.850Z,99.99
2018-02-04T05:51:30.321Z,99.99
2018-02-04T05:51:55.843Z,99.99
2018-02-04T05:52:21.340Z,99.99
2018-02-04T05:52:46.850Z,99.99
2018-02-04T05:53:12.353Z,99.99
2018-02-04T05:53:37.802Z,99.99
2018-02-04T05:54:03.285Z,99.99
2018-02-04T05:54:28.777Z,99.99
2018-02-04T05:54:54.261Z,99.99
2018-02-04T05:55:19.747Z,99.99
2018-02-04T05:56:23.384Z,99.99
2018-02-04T05:56:48.886Z,99.99
2018-02-04T05:57:14.392Z,99.99
2018-02-04T05:57:39.870Z,99.99
2018-02-04T05:58:05.346Z,99.99
2018-02-04T05:58:30.836Z,99.99
2018-02-04T05:58:56.346Z,99.99
2018-02-04T05:59:21.823Z,99.99
2018-02-04T05:59:47.335Z,99.99
2018-02-04T06:00:12.869Z,99.99
2018-02-04T06:00:38.356Z,99.99
2018-02-04T06:01:03.857Z,99.99
2018-02-04T06:01:29.386Z,99.99
2018-02-04T06:01:54.933Z,99.99
2018-02-04T06:02:20.419Z,99.99
2018-02-04T06:02:45.919Z,99.99
2018-02-04T06:03:11.403Z,99.99
2018-02-04T06:03:36.968Z,99.99
2018-02-04T06:04:02.496Z,99.99
2018-02-04T06:04:28.002Z,99.99
2018-02-04T06:04:53.484Z,99.99
2018-02-04T06:05:52.021Z,99.99
2018-02-04T06:06:17.561Z,99.99
2018-02-04T06:06:43.047Z,99.99
2018-02-04T06:07:08.521Z,99.99
2018-02-04T06:08:12.091Z,99.99
2018-02-04T06:08:37.590Z,99.99
2018-02-04T06:09:03.067Z,99.99
2018-02-04T06:09:28.552Z,99.99
2018-02-04T06:09:53.998Z,99.99
2018-02-04T06:10:19.537Z,99.99
2018-02-04T06:10:45.014Z,99.99
2018-02-04T06:11:10.492Z,99.99
2018-02-04T06:11:35.989Z,99.99
2018-02-04T06:12:34.492Z,99.99
2018-02-04T06:12:59.985Z,99.99
2018-02-04T06:13:25.509Z,99.99
2018-02-04T06:13:51.012Z,99.99
2018-02-04T06:14:16.536Z,99.99
2018-02-04T06:14:42.060Z,99.99
2018-02-04T06:15:07.545Z,99.99
2018-02-04T06:15:33.046Z,99.99
2018-02-04T06:15:58.518Z,99.99
2018-02-04T06:16:24.016Z,99.99
2018-02-04T06:16:49.501Z,99.99
2018-02-04T06:17:14.956Z,99.99
2018-02-04T06:17:40.447Z,99.99
2018-02-04T06:18:05.945Z,99.99
2018-02-04T06:18:31.431Z,99.99
2018-02-04T06:18:56.937Z,99.99
2018-02-04T06:19:22.391Z,99.99
2018-02-04T06:19:47.856Z,99.99
2018-02-04T06:20:13.334Z,99.99
2018-02-04T06:20:38.863Z,99.99
2018-02-04T06:21:04.342Z,99.99
2018-02-04T06:21:29.828Z,99.99
2018-02-04T06:21:55.326Z,99.99
2018-02-04T06:22:20.815Z,99.99
2018-02-04T06:22:46.292Z,99.99
2018-02-04T06:23:11.770Z,99.99
2018-02-04T06:23:37.273Z,99.99
2018-02-04T06:24:40.942Z,99.99
2018-02-04T06:25:06.432Z,99.99
2018-02-04T06:25:31.959Z,99.99
2018-02-04T06:25:57.427Z,99.99
2018-02-04T06:26:22.888Z,99.99
2018-02-04T06:27:26.442Z,99.99
2018-02-04T06:27:51.906Z,99.99
2018-02-04T06:28:17.382Z,99.99
2018-02-04T06:28:42.842Z,99.99
2018-02-04T06:29:08.313Z,99.99
2018-02-04T06:30:22.099Z,99.99
2018-02-04T06:30:47.575Z,99.99
2018-02-04T06:31:13.042Z,99.99
2018-02-04T06:31:38.483Z,99.99
2018-02-04T06:32:03.966Z,99.99
2018-02-04T06:32:29.461Z,99.99
2018-02-04T06:32:54.920Z,99.99
2018-02-04T06:33:20.429Z,99.99
2018-02-04T06:33:45.926Z,99.99
2018-02-04T06:34:11.442Z,99.99
2018-02-04T06:34:36.873Z,99.99
2018-02-04T06:35:02.373Z,99.99
2018-02-04T06:35:27.908Z,99.99
2018-02-04T06:35:53.379Z,99.99
2018-02-04T06:36:18.833Z,99.99
2018-02-04T06:36:44.324Z,99.99
2018-02-04T06:37:09.838Z,99.99
2018-02-04T06:37:35.284Z,99.99
2018-02-04T06:38:00.805Z,99.99
2018-02-04T06:38:26.280Z,99.99
2018-02-04T06:38:51.771Z,99.99
2018-02-04T06:39:17.328Z,99.99
2018-02-04T06:39:42.797Z,99.99
2018-02-04T06:40:08.290Z,99.99
2018-02-04T06:40:33.735Z,99.99
2018-02-04T06:40:59.226Z,99.99
2018-02-04T06:41:24.705Z,99.99
2018-02-04T06:41:50.195Z,99.99
2018-02-04T06:42:15.678Z,99.99
2018-02-04T06:42:41.213Z,99.99
2018-02-04T06:43:06.698Z,99.99
2018-02-04T06:43:32.189Z,99.99
2018-02-04T06:43:57.675Z,99.99
2018-02-04T06:44:23.169Z,99.99
2018-02-04T06:44:48.627Z,99.99
2018-02-04T06:45:14.132Z,99.99
2018-02-04T06:45:39.573Z,99.99
2018-02-04T06:46:05.051Z,99.99
2018-02-04T06:46:30.586Z,99.99
2018-02-04T06:46:56.078Z,99.99
2018-02-04T06:48:09.828Z,99.99
2018-02-04T06:48:35.316Z,99.99
2018-02-04T06:49:00.797Z,99.99
2018-02-04T06:49:26.313Z,99.99
2018-02-04T06:49:51.845Z,99.99
2018-02-04T06:50:17.441Z,99.99
2018-02-04T06:50:42.889Z,99.99
2018-02-04T06:51:08.394Z,99.99
2018-02-04T06:51:33.888Z,99.99
2018-02-04T06:51:59.387Z,99.99
2018-02-04T06:52:24.879Z,99.99
2018-02-04T06:53:28.501Z,99.99
2018-02-04T06:53:53.982Z,99.99
2018-02-04T06:54:19.482Z,99.99
2018-02-04T06:54:44.974Z,99.99
2018-02-04T06:55:10.454Z,99.99
2018-02-04T06:56:08.934Z,99.99
2018-02-04T06:56:34.444Z,99.99
2018-02-04T06:56:59.911Z,99.99
2018-02-04T06:57:25.392Z,99.99
2018-02-04T06:57:50.980Z,99.99
2018-02-04T06:58:16.453Z,99.99
2018-02-04T06:58:42.002Z,99.99
2018-02-04T06:59:07.488Z,99.99
2018-02-04T06:59:33.015Z,99.99
2018-02-04T06:59:58.512Z,99.99
2018-02-04T07:00:24.006Z,99.99
2018-02-04T07:00:49.468Z,99.99
2018-02-04T07:01:14.901Z,99.99
2018-02-04T07:01:40.402Z,99.99
2018-02-04T07:02:05.956Z,99.99
2018-02-04T07:02:31.521Z,99.99
2018-02-04T07:02:57.037Z,99.99
2018-02-04T07:03:22.554Z,99.99
2018-02-04T07:03:48.011Z,99.99
2018-02-04T07:04:13.522Z,99.99
2018-02-04T07:04:38.995Z,99.99
2018-02-04T07:05:04.566Z,99.99
2018-02-04T07:05:30.008Z,99.99
2018-02-04T07:05:55.456Z,99.99
2018-02-04T07:06:21.027Z,99.99
2018-02-04T07:06:46.516Z,99.99
2018-02-04T07:07:12.033Z,99.99
2018-02-04T07:07:37.500Z,99.99
2018-02-04T07:08:03.042Z,99.99
2018-02-04T07:08:28.465Z,99.99
2018-02-04T07:08:53.894Z,99.99
2018-02-04T07:09:19.370Z,99.99
2018-02-04T07:09:44.863Z,99.99
2018-02-04T07:10:10.383Z,99.99
2018-02-04T07:10:35.940Z,99.99
2018-02-04T07:11:01.408Z,99.99
2018-02-04T07:11:26.924Z,99.99
2018-02-04T07:11:52.369Z,99.99
2018-02-04T07:12:17.826Z,99.99
2018-02-04T07:12:43.359Z,99.99
2018-02-04T07:13:08.771Z,99.99
2018-02-04T07:14:17.865Z,99.99
2018-02-04T07:14:43.368Z,99.99
2018-02-04T07:15:08.864Z,99.99
2018-02-04T07:15:34.371Z,99.99
2018-02-04T07:15:59.848Z,99.99
2018-02-04T07:16:25.397Z,99.99
2018-02-04T07:16:50.926Z,99.99
2018-02-04T07:17:16.377Z,99.99
2018-02-04T07:17:41.899Z,99.99
2018-02-04T07:18:07.395Z,99.99
2018-02-04T07:18:32.888Z,99.99
2018-02-04T07:18:58.396Z,99.99
2018-02-04T07:19:23.892Z,99.99
2018-02-04T07:19:49.388Z,99.99
2018-02-04T07:20:14.867Z,99.99
2018-02-04T07:20:40.377Z,99.99
2018-02-04T07:21:05.829Z,99.99
2018-02-04T07:21:31.343Z,99.99
2018-02-04T07:21:56.865Z,99.99
2018-02-04T07:22:22.352Z,99.99
2018-02-04T07:22:47.824Z,99.99
2018-02-04T07:23:13.294Z,99.99
2018-02-04T07:23:38.796Z,99.99
2018-02-04T07:24:04.256Z,99.99
2018-02-04T07:24:29.799Z,99.99
2018-02-04T07:24:55.299Z,99.99
2018-02-04T07:25:20.834Z,99.99
2018-02-04T07:25:46.356Z,99.99
2018-02-04T07:26:11.871Z,99.99
2018-02-04T07:26:37.328Z,99.99
2018-02-04T07:27:02.816Z,99.99
2018-02-04T07:27:28.291Z,99.99
2018-02-04T07:27:53.890Z,99.99
2018-02-04T07:28:19.391Z,99.99
2018-02-04T07:28:44.891Z,99.99
2018-02-04T07:29:10.362Z,99.99
2018-02-04T07:29:35.841Z,99.99
2018-02-04T07:30:01.346Z,99.99
2018-02-04T07:30:26.825Z,99.99
2018-02-04T07:30:52.261Z,99.99
2018-02-04T07:31:17.721Z,99.99
2018-02-04T07:31:43.215Z,99.99
2018-02-04T07:32:08.732Z,99.99
2018-02-04T07:32:34.167Z,99.99
2018-02-04T07:32:59.676Z,99.99
2018-02-04T07:33:25.156Z,99.99
2018-02-04T07:33:50.618Z,99.99
2018-02-04T07:34:49.173Z,99.99
2018-02-04T07:35:14.682Z,99.99
2018-02-04T07:35:40.115Z,99.99
2018-02-04T07:36:05.607Z,99.99
2018-02-04T07:37:04.139Z,99.99
2018-02-04T07:37:29.609Z,99.99
2018-02-04T07:37:55.099Z,99.99
2018-02-04T07:38:20.587Z,99.99
2018-02-04T07:38:46.084Z,99.99
2018-02-04T07:39:11.556Z,99.99
2018-02-04T07:39:37.071Z,99.99
2018-02-04T07:40:02.626Z,99.99
2018-02-04T07:40:56.060Z,99.99
2018-02-04T07:41:21.533Z,99.99
2018-02-04T07:41:47.038Z,99.99
2018-02-04T07:42:12.518Z,99.99
2018-02-04T07:42:38.021Z,99.99
2018-02-04T07:43:03.574Z,99.99
2018-02-04T07:43:29.081Z,99.99
2018-02-04T07:43:54.514Z,99.99
2018-02-04T07:44:19.996Z,99.99
2018-02-04T07:44:45.501Z,99.99
2018-02-04T07:45:10.949Z,99.99
2018-02-04T07:45:36.416Z,99.99
2018-02-04T07:46:01.916Z,99.99
2018-02-04T07:46:27.387Z,99.99
2018-02-04T07:46:52.860Z,99.99
2018-02-04T07:48:01.723Z,99.99
2018-02-04T07:48:27.217Z,99.99
2018-02-04T07:48:52.750Z,99.99
2018-02-04T07:49:18.242Z,99.99
2018-02-04T07:49:43.739Z,99.99
2018-02-04T07:50:09.166Z,99.99
2018-02-04T07:50:34.635Z,99.99
2018-02-04T07:51:00.132Z,99.99
2018-02-04T07:51:25.624Z,99.99
2018-02-04T07:52:34.315Z,99.99
2018-02-04T07:52:59.813Z,99.99
2018-02-04T07:53:25.285Z,99.99
2018-02-04T07:53:50.782Z,99.99
2018-02-04T07:54:16.243Z,99.99
2018-02-04T07:54:41.798Z,99.99
2018-02-04T07:55:07.362Z,99.99
2018-02-04T07:55:32.962Z,99.99
2018-02-04T07:55:58.444Z,99.99
2018-02-04T07:56:24.054Z,99.99
2018-02-04T07:56:49.528Z,99.99
2018-02-04T07:57:14.980Z,99.99
2018-02-04T07:57:40.489Z,99.99
2018-02-04T07:58:06.014Z,99.99
2018-02-04T07:58:31.560Z,99.99
2018-02-04T07:58:57.066Z,99.99
2018-02-04T07:59:22.554Z,99.99
2018-02-04T07:59:48.097Z,99.99
2018-02-04T08:00:13.666Z,99.99
2018-02-04T08:00:39.130Z,99.99
2018-02-04T08:01:04.600Z,99.99
2018-02-04T08:01:30.142Z,99.99
2018-02-04T08:01:55.891Z,99.99
2018-02-04T08:02:21.358Z,99.99
2018-02-04T08:02:46.942Z,99.99
2018-02-04T08:03:12.421Z,99.99
2018-02-04T08:03:37.886Z,99.99
2018-02-04T08:04:03.353Z,99.99
2018-02-04T08:04:28.804Z,99.99
2018-02-04T08:04:54.325Z,99.99
2018-02-04T08:05:19.737Z,99.99
2018-02-04T08:05:45.235Z,99.99
2018-02-04T08:06:10.730Z,99.99
2018-02-04T08:06:36.250Z,99.99
2018-02-04T08:07:01.681Z,99.99
2018-02-04T08:07:27.135Z,99.99
2018-02-04T08:07:52.604Z,99.99
2018-02-04T08:08:18.125Z,99.99
2018-02-04T08:08:43.588Z,99.99
2018-02-04T08:09:09.154Z,99.99
2018-02-04T08:09:34.604Z,99.99
2018-02-04T08:10:00.130Z,99.99
2018-02-04T08:10:25.710Z,99.99
2018-02-04T08:10:51.116Z,99.99
2018-02-04T08:11:16.608Z,99.99
2018-02-04T08:11:42.656Z,99.99
2018-02-04T08:12:08.498Z,99.99
2018-02-04T08:12:37.002Z,99.99
2018-02-04T08:13:04.635Z,99.99
2018-02-04T08:13:30.384Z,99.99
2018-02-04T08:13:55.852Z,99.99
2018-02-04T08:14:21.428Z,99.99
2018-02-04T08:14:46.888Z,99.99
2018-02-04T08:15:12.371Z,99.99
2018-02-04T08:15:38.261Z,99.99
2018-02-04T08:16:04.345Z,99.99
2018-02-04T08:16:30.003Z,99.99
2018-02-04T08:16:55.369Z,99.99
2018-02-04T08:17:20.938Z,99.99
2018-02-04T08:17:46.389Z,99.99
2018-02-04T08:18:11.844Z,99.99
2018-02-04T08:19:20.546Z,99.99
2018-02-04T08:19:46.164Z,99.99
2018-02-04T08:20:11.774Z,99.99
2018-02-04T08:20:37.311Z,99.99
2018-02-04T08:21:02.774Z,99.99
2018-02-04T08:21:28.375Z,99.99
2018-02-04T08:21:53.897Z,99.99
2018-02-04T08:22:19.387Z,99.99
2018-02-04T08:22:44.847Z,99.99
2018-02-04T08:23:10.343Z,99.99
2018-02-04T08:23:35.866Z,99.99
2018-02-04T08:24:01.337Z,99.99
2018-02-04T08:24:26.875Z,99.99
2018-02-04T08:24:52.485Z,99.99
2018-02-04T08:25:17.919Z,99.99
2018-02-04T08:25:43.363Z,99.99
2018-02-04T08:26:08.873Z,99.99
2018-02-04T08:26:34.351Z,99.99
2018-02-04T08:26:59.807Z,99.99
2018-02-04T08:27:25.300Z,99.99
2018-02-04T08:27:50.793Z,99.99
2018-02-04T08:28:16.253Z,99.99
2018-02-04T08:28:41.724Z,99.99
2018-02-04T08:29:07.146Z,99.99
2018-02-04T08:29:32.616Z,99.99
2018-02-04T08:29:58.078Z,99.99
2018-02-04T08:30:23.585Z,99.99
2018-02-04T08:30:49.034Z,99.99
2018-02-04T08:31:14.545Z,99.99
2018-02-04T08:31:40.070Z,99.99
2018-02-04T08:32:05.636Z,99.99
2018-02-04T08:32:31.059Z,99.99
2018-02-04T08:32:56.577Z,99.99
2018-02-04T08:33:22.138Z,99.99
2018-02-04T08:33:47.505Z,99.99
2018-02-04T08:34:41.034Z,99.99
2018-02-04T08:35:06.473Z,99.99
2018-02-04T08:35:31.957Z,99.99
2018-02-04T08:35:57.417Z,99.99
2018-02-04T08:36:22.917Z,99.99
2018-02-04T08:36:48.375Z,99.99
2018-02-04T08:37:13.935Z,99.99
2018-02-04T08:37:39.361Z,99.99
2018-02-04T08:38:04.824Z,99.99
2018-02-04T08:38:30.322Z,99.99
2018-02-04T08:38:55.763Z,99.99
2018-02-04T08:39:21.240Z,99.99
2018-02-04T08:39:46.709Z,99.99
2018-02-04T08:40:12.213Z,99.99
2018-02-04T08:40:37.714Z,99.99
2018-02-04T08:41:03.211Z,99.99
2018-02-04T08:41:28.714Z,99.99
2018-02-04T08:41:54.157Z,99.99
2018-02-04T08:42:20.252Z,99.99
2018-02-04T08:42:45.713Z,99.99
2018-02-04T08:43:11.211Z,99.99
2018-02-04T08:43:36.714Z,99.99
2018-02-04T08:44:02.164Z,99.99
2018-02-04T08:44:27.688Z,99.99
2018-02-04T08:44:53.227Z,99.99
2018-02-04T08:45:18.696Z,99.99
2018-02-04T08:45:44.198Z,99.99
2018-02-04T08:46:09.663Z,99.99
2018-02-04T08:46:35.114Z,99.99
2018-02-04T08:47:49.155Z,99.99
2018-02-04T08:48:14.674Z,99.99
2018-02-04T08:48:40.196Z,99.99
2018-02-04T08:49:05.859Z,99.99
2018-02-04T08:50:15.796Z,99.99
2018-02-04T08:50:41.293Z,99.99
2018-02-04T08:51:06.744Z,99.99
2018-02-04T08:51:32.238Z,99.99
2018-02-04T08:51:57.728Z,99.99
2018-02-04T08:53:12.853Z,99.99
2018-02-04T08:53:38.714Z,99.99
2018-02-04T08:54:04.150Z,99.99
2018-02-04T08:54:29.658Z,99.99
2018-02-04T08:54:55.089Z,99.99
2018-02-04T08:55:20.578Z,99.99
2018-02-04T08:55:46.157Z,99.99
2018-02-04T08:56:11.538Z,99.99
2018-02-04T08:56:37.003Z,99.99
2018-02-04T08:57:02.633Z,99.99
2018-02-04T08:57:28.146Z,99.99
2018-02-04T08:57:53.648Z,99.99
2018-02-04T08:58:19.200Z,99.99
2018-02-04T08:58:44.684Z,99.99
2018-02-04T08:59:10.130Z,99.99
2018-02-04T08:59:35.656Z,99.99
2018-02-04T09:00:01.150Z,99.99
2018-02-04T09:00:26.590Z,99.99
2018-02-04T09:00:52.026Z,99.99
2018-02-04T09:01:17.569Z,99.99
2018-02-04T09:01:43.065Z,99.99
2018-02-04T09:02:08.549Z,99.99
2018-02-04T09:02:34.051Z,99.99
2018-02-04T09:02:59.495Z,99.99
2018-02-04T09:03:24.952Z,99.99
2018-02-04T09:03:50.496Z,99.99
2018-02-04T09:04:15.961Z,99.99
2018-02-04T09:04:41.527Z,99.99
2018-02-04T09:05:06.967Z,99.99
2018-02-04T09:05:32.494Z,99.99
2018-02-04T09:05:57.960Z,99.99
2018-02-04T09:06:23.445Z,99.99
2018-02-04T09:06:48.877Z,99.99
2018-02-04T09:07:14.359Z,99.99
2018-02-04T09:07:39.846Z,99.99
2018-02-04T09:08:05.361Z,99.99
2018-02-04T09:09:19.127Z,99.99
2018-02-04T09:09:44.663Z,99.99
2018-02-04T09:10:10.157Z,99.99
2018-02-04T09:11:08.704Z,99.99
2018-02-04T09:11:34.682Z,99.99
2018-02-04T09:12:00.132Z,99.99
2018-02-04T09:12:25.608Z,99.99
2018-02-04T09:12:51.176Z,99.99
2018-02-04T09:13:16.673Z,99.99
2018-02-04T09:13:42.688Z,99.99
2018-02-04T09:14:08.241Z,99.99
2018-02-04T09:14:33.638Z,99.99
2018-02-04T09:14:59.180Z,99.99
2018-02-04T09:15:24.811Z,99.99
2018-02-04T09:15:50.607Z,99.99
2018-02-04T09:16:16.282Z,99.99
2018-02-04T09:16:41.757Z,99.99
2018-02-04T09:17:07.560Z,99.99
2018-02-04T09:17:33.502Z,99.99
2018-02-04T09:17:59.105Z,99.99
2018-02-04T09:18:24.705Z,99.99
2018-02-04T09:18:50.189Z,99.99
2018-02-04T09:19:16.178Z,99.99
2018-02-04T09:19:41.866Z,99.99
2018-02-04T09:20:07.366Z,99.99
2018-02-04T09:20:32.877Z,99.99
2018-02-04T09:20:58.344Z,99.99
2018-02-04T09:21:23.889Z,99.99
2018-02-04T09:21:49.323Z,99.99
2018-02-04T09:22:14.767Z,99.99
2018-02-04T09:22:40.346Z,99.99
2018-02-04T09:23:06.083Z,99.99
2018-02-04T09:23:31.562Z,99.99
2018-02-04T09:23:57.051Z,99.99
2018-02-04T09:24:22.566Z,99.99
2018-02-04T09:24:48.032Z,99.99
2018-02-04T09:25:13.560Z,99.99
2018-02-04T09:25:39.199Z,99.99
2018-02-04T09:26:04.660Z,99.99
2018-02-04T09:26:30.153Z,99.99
2018-02-04T09:26:55.707Z,99.99
2018-02-04T09:27:21.173Z,99.99
2018-02-04T09:27:46.634Z,99.99
2018-02-04T09:28:12.076Z,99.99
2018-02-04T09:28:37.547Z,99.99
2018-02-04T09:29:03.044Z,99.99
2018-02-04T09:29:28.500Z,99.99
2018-02-04T09:29:54.126Z,99.99
2018-02-04T09:30:19.510Z,99.99
2018-02-04T09:30:45.036Z,99.99
2018-02-04T09:31:10.570Z,99.99
2018-02-04T09:31:35.995Z,99.99
2018-02-04T09:32:01.583Z,99.99
2018-02-04T09:32:27.391Z,99.99
2018-02-04T09:32:52.828Z,99.99
2018-02-04T09:33:18.464Z,99.99
2018-02-04T09:33:43.833Z,99.99
2018-02-04T09:34:09.423Z,99.99
2018-02-04T09:34:35.004Z,99.99
2018-02-04T09:35:00.921Z,99.99
2018-02-04T09:35:26.362Z,99.99
2018-02-04T09:35:51.862Z,99.99
2018-02-04T09:36:17.363Z,99.99
2018-02-04T09:36:42.891Z,99.99
2018-02-04T09:37:08.328Z,99.99
2018-02-04T09:37:33.793Z,99.99
2018-02-04T09:37:59.315Z,99.99
2018-02-04T09:38:24.735Z,99.99
2018-02-04T09:38:50.196Z,99.99
2018-02-04T09:39:15.671Z,99.99
2018-02-04T09:39:41.147Z,99.99
2018-02-04T09:40:06.649Z,99.99
2018-02-04T09:40:32.132Z,99.99
2018-02-04T09:40:57.589Z,99.99
2018-02-04T09:41:23.085Z,99.99
2018-02-04T09:41:48.570Z,99.99
2018-02-04T09:42:14.063Z,99.99
2018-02-04T09:42:39.538Z,99.99
2018-02-04T09:43:05.042Z,99.99
2018-02-04T09:43:30.496Z,99.99
2018-02-04T09:43:56.049Z,99.99
2018-02-04T09:44:21.529Z,99.99
2018-02-04T09:45:14.974Z,99.99
2018-02-04T09:45:40.461Z,99.99
2018-02-04T09:46:05.943Z,99.99
2018-02-04T09:46:31.431Z,99.99
2018-02-04T09:46:56.930Z,99.99
2018-02-04T09:47:22.395Z,99.99
2018-02-04T09:47:47.884Z,99.99
2018-02-04T09:48:13.289Z,99.99
2018-02-04T09:48:38.780Z,99.99
2018-02-04T09:49:04.247Z,99.99
2018-02-04T09:49:29.726Z,99.99
2018-02-04T09:49:55.201Z,99.99
2018-02-04T09:50:20.702Z,99.99
2018-02-04T09:50:46.207Z,99.99
2018-02-04T09:51:11.688Z,99.99
2018-02-04T09:51:37.158Z,99.99
2018-02-04T09:52:02.645Z,99.99
2018-02-04T09:52:28.156Z,99.99
2018-02-04T09:52:53.599Z,99.99
2018-02-04T09:53:52.101Z,99.99
2018-02-04T09:54:17.550Z,99.99
2018-02-04T09:54:43.066Z,99.99
2018-02-04T09:55:08.548Z,99.99
2018-02-04T09:55:34.013Z,99.99
2018-02-04T09:55:59.456Z,99.99
2018-02-04T09:56:24.914Z,99.99
2018-02-04T09:56:50.385Z,99.99
2018-02-04T09:57:15.892Z,99.99
2018-02-04T09:57:41.383Z,99.99
2018-02-04T09:58:06.890Z,99.99
2018-02-04T09:58:32.360Z,99.99
2018-02-04T09:58:57.830Z,99.99
2018-02-04T09:59:23.286Z,99.99
2018-02-04T09:59:48.764Z,99.99
2018-02-04T10:00:14.283Z,99.99
2018-02-04T10:00:39.773Z,99.99
2018-02-04T10:01:05.303Z,99.99
2018-02-04T10:01:31.038Z,99.99
2018-02-04T10:01:56.428Z,99.99
2018-02-04T10:02:21.863Z,99.99
2018-02-04T10:02:47.428Z,99.99
2018-02-04T10:03:12.894Z,99.99
2018-02-04T10:03:38.350Z,99.99
2018-02-04T10:04:03.852Z,99.99
2018-02-04T10:04:29.346Z,99.99
2018-02-04T10:04:54.897Z,99.99
2018-02-04T10:05:20.416Z,99.99
2018-02-04T10:05:45.880Z,99.99
2018-02-04T10:06:11.340Z,99.99
2018-02-04T10:06:36.934Z,99.99
2018-02-04T10:07:02.501Z,99.99
2018-02-04T10:07:28.006Z,99.99
2018-02-04T10:07:53.453Z,99.99
2018-02-04T10:08:18.884Z,99.99
2018-02-04T10:08:44.383Z,99.99
2018-02-04T10:09:09.841Z,99.99
2018-02-04T10:09:35.388Z,99.99
2018-02-04T10:10:00.858Z,99.99
2018-02-04T10:10:26.442Z,99.99
2018-02-04T10:10:52.270Z,99.99
2018-02-04T10:11:17.754Z,99.99
2018-02-04T10:11:44.645Z,99.99
2018-02-04T10:12:09.950Z,99.99
2018-02-04T10:12:35.485Z,99.99
2018-02-04T10:13:01.028Z,99.99
2018-02-04T10:13:26.556Z,99.99
2018-02-04T10:13:52.158Z,99.99
2018-02-04T10:14:17.712Z,99.99
2018-02-04T10:14:43.604Z,99.99
2018-02-04T10:15:09.567Z,99.99
2018-02-04T10:15:35.918Z,99.99
2018-02-04T10:16:01.307Z,99.99
2018-02-04T10:16:27.212Z,99.99
2018-02-04T10:16:52.604Z,99.99
2018-02-04T10:17:51.210Z,99.99
2018-02-04T10:18:16.713Z,99.99
2018-02-04T10:18:42.222Z,99.99
2018-02-04T10:19:07.641Z,99.99
2018-02-04T10:19:33.157Z,99.99
2018-02-04T10:20:47.095Z,99.99
2018-02-04T10:21:12.543Z,99.99
2018-02-04T10:21:38.024Z,99.99
2018-02-04T10:22:03.621Z,99.99
2018-02-04T10:22:29.130Z,99.99
2018-02-04T10:22:54.664Z,99.99
2018-02-04T10:23:20.104Z,99.99
2018-02-04T10:23:46.318Z,99.99
2018-02-04T10:24:12.215Z,99.99
2018-02-04T10:24:37.723Z,99.99
2018-02-04T10:25:03.825Z,99.99
2018-02-04T10:25:29.615Z,99.99
2018-02-04T10:25:55.181Z,99.99
2018-02-04T10:26:21.104Z,99.99
2018-02-04T10:26:46.901Z,99.99
2018-02-04T10:27:12.880Z,99.99
2018-02-04T10:27:38.437Z,99.99
2018-02-04T10:28:03.981Z,99.99
2018-02-04T10:28:29.743Z,99.99
2018-02-04T10:28:55.220Z,99.99
2018-02-04T10:29:20.746Z,99.99
2018-02-04T10:29:46.242Z,99.99
2018-02-04T10:30:11.847Z,99.99
2018-02-04T10:30:37.513Z,99.99
2018-02-04T10:31:02.968Z,99.99
2018-02-04T10:31:28.513Z,99.99
2018-02-04T10:31:54.072Z,99.99
2018-02-04T10:32:19.417Z,99.99
2018-02-04T10:32:44.905Z,99.99
2018-02-04T10:33:38.465Z,99.99
2018-02-04T10:34:04.204Z,99.99
2018-02-04T10:34:29.509Z,99.99
2018-02-04T10:34:54.952Z,99.99
2018-02-04T10:35:20.543Z,99.99
2018-02-04T10:35:45.994Z,99.99
2018-02-04T10:36:11.593Z,99.99
2018-02-04T10:36:36.942Z,99.99
2018-02-04T10:37:02.469Z,99.99
2018-02-04T10:37:28.221Z,99.99
2018-02-04T10:37:53.723Z,99.99
2018-02-04T10:38:19.154Z,99.99
2018-02-04T10:38:44.677Z,99.99
2018-02-04T10:39:10.192Z,99.99
2018-02-04T10:39:35.627Z,99.99
2018-02-04T10:40:01.089Z,99.99
2018-02-04T10:40:26.629Z,99.99
2018-02-04T10:40:52.108Z,99.99
2018-02-04T10:41:18.119Z,99.99
2018-02-04T10:41:43.842Z,99.99
2018-02-04T10:42:09.278Z,99.99
2018-02-04T10:42:34.796Z,99.99
2018-02-04T10:43:00.336Z,99.99
2018-02-04T10:43:25.751Z,99.99
2018-02-04T10:43:51.402Z,99.99
2018-02-04T10:44:16.899Z,99.99
2018-02-04T10:44:42.274Z,99.99
2018-02-04T10:45:07.847Z,99.99
2018-02-04T10:45:33.287Z,99.99
2018-02-04T10:45:58.967Z,99.99
2018-02-04T10:46:24.450Z,99.99
2018-02-04T10:46:49.979Z,99.99
2018-02-04T10:47:15.396Z,99.99
2018-02-04T10:47:40.853Z,99.99
2018-02-04T10:48:06.349Z,99.99
2018-02-04T10:48:31.901Z,99.99
2018-02-04T10:48:57.353Z,99.99
2018-02-04T10:49:22.796Z,99.99
2018-02-04T10:49:48.331Z,99.99
2018-02-04T10:50:13.774Z,99.99
2018-02-04T10:50:39.298Z,99.99
2018-02-04T10:51:04.781Z,99.99